This is the latest recevied weather packets stored in our database for station/object EA3KZ-1. If no packets are shown the sender has not sent any weather packets the latest 10 day(s).
| Time | Temp. | Humidity | Pressure | Rain* | Wind** | Luminosity | Snow |
|---|---|---|---|---|---|---|---|
| 1787766973 | 27.78° C | 58% | 1008.2 hPa | 0 mm | - | - | - |
| 1787766371 | 28.33° C | 55% | 1008.3 hPa | 0 mm | - | - | - |
| 1787765768 | 28.33° C | 53% | 1008.3 hPa | 0 mm | - | - | - |
| 1787765165 | 28.33° C | 57% | 1008.2 hPa | 0 mm | - | - | - |
| 1787764563 | 28.33° C | 58% | 1008.5 hPa | 0 mm | - | - | - |
| 1787763960 | 28.89° C | 56% | 1008.5 hPa | 0 mm | - | - | - |
| 1787763358 | 28.89° C | 56% | 1008.6 hPa | 0 mm | - | - | - |
| 1787762755 | 28.89° C | 57% | 1008.5 hPa | 0 mm | - | - | - |
| 1787762153 | 29.44° C | 57% | 1008.6 hPa | 0 mm | - | - | - |
| 1787761550 | 28.89° C | 58% | 1008.7 hPa | 0 mm | - | - | - |
| 1787760947 | 29.44° C | 57% | 1008.7 hPa | 0 mm | - | - | - |
| 1787760345 | 29.44° C | 57% | 1008.7 hPa | 0 mm | - | - | - |
| 1787759742 | 29.44° C | 58% | 1008.6 hPa | 0 mm | - | - | - |
| 1787759140 | 29.44° C | 59% | 1008.7 hPa | 0 mm | - | - | - |
| 1787758537 | 30° C | 57% | 1008.7 hPa | 0 mm | - | - | - |
| 1787757934 | 30.56° C | 53% | 1008.6 hPa | 0 mm | - | - | - |
| 1787757332 | 29.44° C | 52% | 1008.7 hPa | 0 mm | - | - | - |
| 1787756729 | 29.44° C | 50% | 1008.8 hPa | 0 mm | - | - | - |
| 1787756127 | 30.56° C | 48% | 1008.9 hPa | 0 mm | - | - | - |
| 1787755524 | 30.56° C | 48% | 1009.1 hPa | 0 mm | - | - | - |
| 1787754921 | 30° C | 49% | 1009.3 hPa | 0 mm | - | - | - |
| 1787754319 | 30.56° C | 49% | 1009.5 hPa | 0 mm | - | - | - |
| 1787753716 | 30° C | 52% | 1009.5 hPa | 0 mm | - | - | - |
| 1787753174 | 30° C | 53% | 1009.5 hPa | 0 mm | - | - | - |
| 1787752571 | 30.56° C | 52% | 1009.4 hPa | 0 mm | - | - | - |
* Rain latest hour (hover to see other rain measurements)
** Current wind speed in m/s (hover to see current wind gust speed)